Time;durP1;ratioP1;P1;durP2;ratioP2;P2;SDS_P1;SDS_P2;PMS_P1;PMS_P2;Temp;Humidity;BMP_temperature;BMP_pressure;BME280_temperature;BME280_humidity;BME280_pressure;Samples;Min_cycle;Max_cycle;Signal;HPM_P1;HPM_P2
2022/01/12 00:00:50;;;;;;;;;;;;;;;;;;5055420;28;19971;-66
2022/01/12 00:03:17;;;;;;;;;;;;;;;;;;5049992;28;19951;-65
2022/01/12 00:05:44;;;;;;;;;;;;;;;;;;5053547;28;19929;-66
2022/01/12 00:08:11;;;;;;;;;;;;;;;;;;5055375;28;20357;-66
2022/01/12 00:10:39;;;;;;;;;;;;;;;;;;5051262;28;19929;-66
2022/01/12 00:13:06;;;;;;;;;;;;;;;;;;5052145;28;19944;-65
2022/01/12 00:15:33;;;;;;;;;;;;;;;;;;5049973;28;20016;-66
2022/01/12 00:18:00;;;;;;;;;;;;;;;;;;5056021;28;19924;-66
2022/01/12 00:20:27;;;;;;;;;;;;;;;;;;5051385;28;19961;-66
2022/01/12 00:22:54;;;;;;;;;;;;;;;;;;5053798;28;19931;-67
2022/01/12 00:25:28;;;;;;;;;;;;;;;;;;5054589;28;20011;-66
2022/01/12 00:33:25;;;;;;;;;;;;;;;;;;5055055;28;20293;-66
2022/01/12 00:35:52;;;;;;;;;;;;;;;;;;5053363;28;19936;-66
2022/01/12 00:38:19;;;;;;;;;;;;;;;;;;5048073;28;19929;-66
2022/01/12 00:40:47;;;;;;;;;;;;;;;;;;5050175;28;19931;-66
2022/01/12 00:43:14;;;;;;;;;;;;;;;;;;5054612;28;20281;-66
2022/01/12 00:45:42;;;;;;;;;;;;;;;;;;5051980;28;19960;-66
2022/01/12 00:48:09;;;;;;;;;;;;;;;;;;5054671;28;19925;-66
2022/01/12 00:50:36;;;;;;;;;;;;;;;;;;5049617;28;19947;-66
2022/01/12 00:53:04;;;;;;;;;;;;;;;;;;5047779;28;20023;-66
2022/01/12 00:55:31;;;;;;;;;;;;;;;;;;5050491;28;19983;-66
2022/01/12 00:57:59;;;;;;;;;;;;;;;;;;5053030;28;20500;-67
2022/01/12 01:00:26;;;;;;;;;;;;;;;;;;5048299;28;19925;-66
2022/01/12 01:02:53;;;;;;;;;;;;;;;;;;5047221;28;20321;-66
2022/01/12 01:05:21;;;;;;;;;;;;;;;;;;5046519;28;19931;-66
2022/01/12 01:10:27;;;;;;;;;;;;;;;;;;5028738;28;19925;-64
2022/01/12 01:12:54;;;;;;;;;;;;;;;;;;5034575;28;19932;-64
2022/01/12 01:15:28;;;;;;;;;;;;;;;;;;5031868;28;19925;-65
2022/01/12 01:26:10;;;;;;;;;;;;;;;;;;5024968;28;20061;-65
2022/01/12 01:28:37;;;;;;;;;;;;;;;;;;5029180;28;19925;-65
2022/01/12 01:31:04;;;;;;;;;;;;;;;;;;5026393;28;19936;-64
2022/01/12 01:33:33;;;;;;;;;;;;;;;;;;5029047;28;20348;-64
2022/01/12 01:36:00;;;;;;;;;;;;;;;;;;5020921;28;19979;-64
2022/01/12 01:38:26;;;;;;;;;;;;;;;;;;5019009;28;19926;-64
2022/01/12 01:40:53;;;;;;;;;;;;;;;;;;5024989;28;19935;-64
2022/01/12 01:43:36;;;;;;;;;;;;;;;;;;5024274;28;20307;-64
2022/01/12 01:54:18;;;;;;;;;;;;;;;;;;5024613;28;19920;-64
2022/01/12 01:56:45;;;;;;;;;;;;;;;;;;5025760;28;20004;-64
2022/01/12 01:59:12;;;;;;;;;;;;;;;;;;5028496;28;20302;-64
2022/01/12 02:01:39;;;;;;;;;;;;;;;;;;5023239;28;19939;-64
2022/01/12 02:04:06;;;;;;;;;;;;;;;;;;5021062;28;19925;-64
2022/01/12 02:06:33;;;;;;;;;;;;;;;;;;5021992;28;19929;-64
2022/01/12 02:09:00;;;;;;;;;;;;;;;;;;5027790;28;19933;-64
2022/01/12 02:11:27;;;;;;;;;;;;;;;;;;5025847;28;20296;-64
2022/01/12 02:13:54;;;;;;;;;;;;;;;;;;5026608;28;19952;-64
2022/01/12 02:16:26;;;;;;;;;;;;;;;;;;5025163;28;19929;-64
2022/01/12 02:19:10;;;;;;;;;;;;;;;;;;5024674;28;20438;-65
2022/01/12 02:35:35;;;;;;;;;;;;;;;;;;5031265;28;19983;-65
2022/01/12 02:40:48;;;;;;;;;;;;;;;;;;5026353;28;19936;-64
2022/01/12 02:43:26;;;;;;;;;;;;;;;;;;5027187;28;20371;-64
2022/01/12 02:51:31;;;;;;;;;;;;;;;;;;5028737;28;19924;-64
2022/01/12 02:53:56;;;;;;;;;;;;;;;;;;5020900;28;20018;-65
2022/01/12 02:56:23;;;;;;;;;;;;;;;;;;5027631;28;20406;-65
2022/01/12 02:58:50;;;;;;;;;;;;;;;;;;5027436;28;20404;-64
2022/01/12 03:01:39;;;;;;;;;;;;;;;;;;5027834;28;19964;-65
2022/01/12 03:04:09;;;;;;;;;;;;;;;;;;5027285;28;19925;-64
2022/01/12 03:06:38;;;;;;;;;;;;;;;;;;5022618;28;19933;-64
2022/01/12 03:09:05;;;;;;;;;;;;;;;;;;5020649;28;20028;-64
2022/01/12 03:11:32;;;;;;;;;;;;;;;;;;5027571;28;20027;-64
2022/01/12 03:13:59;;;;;;;;;;;;;;;;;;5024958;28;19929;-65
2022/01/12 03:16:26;;;;;;;;;;;;;;;;;;5027458;28;20013;-64
2022/01/12 03:18:53;;;;;;;;;;;;;;;;;;5028497;28;20360;-65
2022/01/12 03:21:20;;;;;;;;;;;;;;;;;;5023653;28;19931;-64
2022/01/12 03:23:47;;;;;;;;;;;;;;;;;;5026589;28;20055;-64
2022/01/12 03:26:14;;;;;;;;;;;;;;;;;;5025540;28;20228;-64
2022/01/12 03:28:41;;;;;;;;;;;;;;;;;;5024139;28;19932;-63
2022/01/12 03:31:14;;;;;;;;;;;;;;;;;;5028923;28;20012;-66
2022/01/12 03:33:54;;;;;;;;;;;;;;;;;;5024955;28;19964;-65
2022/01/12 03:36:27;;;;;;;;;;;;;;;;;;5026605;28;20030;-65
2022/01/12 03:38:54;;;;;;;;;;;;;;;;;;5018737;28;19932;-65
2022/01/12 03:41:21;;;;;;;;;;;;;;;;;;5019511;28;19933;-65
2022/01/12 03:43:48;;;;;;;;;;;;;;;;;;5025638;28;19936;-65
2022/01/12 03:46:17;;;;;;;;;;;;;;;;;;5022991;28;20305;-65
2022/01/12 03:48:44;;;;;;;;;;;;;;;;;;5026982;28;19932;-65
2022/01/12 03:51:11;;;;;;;;;;;;;;;;;;5027743;28;19925;-65
2022/01/12 03:53:38;;;;;;;;;;;;;;;;;;5027017;28;19925;-65
2022/01/12 03:56:05;;;;;;;;;;;;;;;;;;5022983;28;20326;-65
2022/01/12 03:58:32;;;;;;;;;;;;;;;;;;5024181;28;19925;-65
2022/01/12 04:00:59;;;;;;;;;;;;;;;;;;5020896;28;20395;-65
2022/01/12 04:03:28;;;;;;;;;;;;;;;;;;5024743;28;19931;-65
2022/01/12 04:08:39;;;;;;;;;;;;;;;;;;5019511;28;20318;-65
2022/01/12 04:11:06;;;;;;;;;;;;;;;;;;5021917;28;20428;-64
2022/01/12 04:13:33;;;;;;;;;;;;;;;;;;5024960;28;20300;-64
2022/01/12 04:16:00;;;;;;;;;;;;;;;;;;5029426;28;19933;-64
2022/01/12 04:18:27;;;;;;;;;;;;;;;;;;5018283;28;19925;-65
2022/01/12 04:20:54;;;;;;;;;;;;;;;;;;5026667;28;19933;-64
2022/01/12 04:23:23;;;;;;;;;;;;;;;;;;5024911;28;20028;-64
2022/01/12 04:25:50;;;;;;;;;;;;;;;;;;5023359;28;19929;-65
2022/01/12 04:28:17;;;;;;;;;;;;;;;;;;5020578;28;19941;-64
2022/01/12 04:30:44;;;;;;;;;;;;;;;;;;5023715;28;20387;-64
2022/01/12 04:33:11;;;;;;;;;;;;;;;;;;5028941;28;20306;-64
2022/01/12 04:35:45;;;;;;;;;;;;;;;;;;5024307;28;19925;-64
2022/01/12 04:38:12;;;;;;;;;;;;;;;;;;5025156;28;19925;-65
2022/01/12 04:40:39;;;;;;;;;;;;;;;;;;5026034;28;19945;-64
2022/01/12 04:43:08;;;;;;;;;;;;;;;;;;5025793;28;19925;-64
2022/01/12 04:45:41;;;;;;;;;;;;;;;;;;5020190;28;19933;-65
2022/01/12 04:48:30;;;;;;;;;;;;;;;;;;5027113;28;19994;-64
2022/01/12 04:50:56;;;;;;;;;;;;;;;;;;5029381;28;19979;-64
2022/01/12 04:53:23;;;;;;;;;;;;;;;;;;5029535;28;19936;-64
2022/01/12 04:55:50;;;;;;;;;;;;;;;;;;5026240;28;19933;-64
2022/01/12 04:58:17;;;;;;;;;;;;;;;;;;5029412;28;20211;-64
2022/01/12 05:00:44;;;;;;;;;;;;;;;;;;5025839;28;19929;-64
2022/01/12 05:08:50;;;;;;;;;;;;;;;;;;5015066;28;20371;-64
2022/01/12 05:14:02;;;;;;;;;;;;;;;;;;5029165;28;19996;-65
2022/01/12 05:16:29;;;;;;;;;;;;;;;;;;5028766;28;19960;-64
2022/01/12 05:18:56;;;;;;;;;;;;;;;;;;5031474;28;20284;-65
2022/01/12 05:21:23;;;;;;;;;;;;;;;;;;5030558;28;20016;-66
2022/01/12 05:23:50;;;;;;;;;;;;;;;;;;5030180;28;19925;-64
2022/01/12 05:26:17;;;;;;;;;;;;;;;;;;5030489;28;20357;-64
2022/01/12 05:28:44;;;;;;;;;;;;;;;;;;5030254;28;19926;-66
2022/01/12 05:31:11;;;;;;;;;;;;;;;;;;5024920;28;20389;-65
2022/01/12 05:33:40;;;;;;;;;;;;;;;;;;5028323;28;19933;-66
2022/01/12 05:36:07;;;;;;;;;;;;;;;;;;5029439;28;19932;-64
2022/01/12 05:38:34;;;;;;;;;;;;;;;;;;5027659;28;19976;-66
2022/01/12 05:41:01;;;;;;;;;;;;;;;;;;5027748;28;19925;-64
2022/01/12 05:43:29;;;;;;;;;;;;;;;;;;5025735;28;20409;-66
2022/01/12 05:45:56;;;;;;;;;;;;;;;;;;5027584;28;19926;-65
2022/01/12 05:51:19;;;;;;;;;;;;;;;;;;4987922;28;20380;-65
2022/01/12 05:53:46;;;;;;;;;;;;;;;;;;5017023;28;20287;-65
2022/01/12 05:56:14;;;;;;;;;;;;;;;;;;5024503;28;20021;-66
2022/01/12 05:58:41;;;;;;;;;;;;;;;;;;5026534;28;19937;-65
2022/01/12 06:01:08;;;;;;;;;;;;;;;;;;5025516;28;19925;-66
2022/01/12 06:03:35;;;;;;;;;;;;;;;;;;5027815;28;19932;-66
2022/01/12 06:06:02;;;;;;;;;;;;;;;;;;5028022;28;19925;-66
2022/01/12 06:08:29;;;;;;;;;;;;;;;;;;5026286;28;19925;-67
2022/01/12 06:10:56;;;;;;;;;;;;;;;;;;5027757;28;20473;-65
2022/01/12 06:13:23;;;;;;;;;;;;;;;;;;5024393;28;20299;-65
2022/01/12 06:15:50;;;;;;;;;;;;;;;;;;5030077;28;19925;-65
2022/01/12 06:18:17;;;;;;;;;;;;;;;;;;5025842;28;19952;-65
2022/01/12 06:20:44;;;;;;;;;;;;;;;;;;5023215;28;19929;-65
2022/01/12 06:23:11;;;;;;;;;;;;;;;;;;5028076;28;19925;-65
2022/01/12 06:25:38;;;;;;;;;;;;;;;;;;5026989;28;19926;-65
2022/01/12 06:28:22;;;;;;;;;;;;;;;;;;5026057;28;19929;-65
2022/01/12 06:33:34;;;;;;;;;;;;;;;;;;5022498;28;19924;-67
2022/01/12 06:36:00;;;;;;;;;;;;;;;;;;5026868;28;20385;-66
2022/01/12 06:38:27;;;;;;;;;;;;;;;;;;5026466;28;20355;-66
2022/01/12 06:40:54;;;;;;;;;;;;;;;;;;5021048;28;19931;-67
2022/01/12 06:43:21;;;;;;;;;;;;;;;;;;5023739;28;19925;-66
2022/01/12 06:45:48;;;;;;;;;;;;;;;;;;5026110;28;19925;-65
2022/01/12 06:48:15;;;;;;;;;;;;;;;;;;5026947;28;19925;-65
2022/01/12 06:50:42;;;;;;;;;;;;;;;;;;5029700;28;19925;-65
2022/01/12 06:53:09;;;;;;;;;;;;;;;;;;5026550;28;20124;-65
2022/01/12 06:55:36;;;;;;;;;;;;;;;;;;5029984;28;19925;-67
2022/01/12 06:58:03;;;;;;;;;;;;;;;;;;5024530;28;19936;-66
2022/01/12 07:00:30;;;;;;;;;;;;;;;;;;5028425;28;19925;-66
2022/01/12 07:02:57;;;;;;;;;;;;;;;;;;5026184;28;20331;-64
2022/01/12 07:05:24;;;;;;;;;;;;;;;;;;5024490;28;19929;-66
2022/01/12 07:07:51;;;;;;;;;;;;;;;;;;5026410;28;19932;-66
2022/01/12 07:10:18;;;;;;;;;;;;;;;;;;5048414;22;19937;-63
2022/01/12 07:12:45;;;;;;;;;;;;;;;;;;5043495;28;20496;-63
2022/01/12 07:15:12;;;;;;;;;;;;;;;;;;5039275;28;20318;-63
2022/01/12 07:17:39;;;;;;;;;;;;;;;;;;5046779;28;20500;-63
2022/01/12 07:20:06;;;;;;;;;;;;;;;;;;5045509;28;20370;-64
2022/01/12 07:22:33;;;;;;;;;;;;;;;;;;5044642;28;20428;-63
2022/01/12 07:25:00;;;;;;;;;;;;;;;;;;5044054;28;20275;-63
2022/01/12 07:27:27;;;;;;;;;;;;;;;;;;5042678;28;20322;-64
2022/01/12 07:29:54;;;;;;;;;;;;;;;;;;5047242;28;19925;-64
2022/01/12 07:32:21;;;;;;;;;;;;;;;;;;5046884;28;19925;-64
2022/01/12 07:34:48;;;;;;;;;;;;;;;;;;5048449;28;19929;-64
2022/01/12 07:37:15;;;;;;;;;;;;;;;;;;5047042;28;19947;-64
2022/01/12 07:39:41;;;;;;;;;;;;;;;;;;5045815;28;19944;-64
2022/01/12 07:42:08;;;;;;;;;;;;;;;;;;5047253;28;19929;-63
2022/01/12 07:44:35;;;;;;;;;;;;;;;;;;5049264;28;19932;-63
2022/01/12 07:47:02;;;;;;;;;;;;;;;;;;5048372;28;19925;-63
2022/01/12 07:49:31;;;;;;;;;;;;;;;;;;5047135;28;19968;-63
2022/01/12 07:52:00;;;;;;;;;;;;;;;;;;5046914;28;19925;-64
2022/01/12 07:54:27;;;;;;;;;;;;;;;;;;5047766;28;19994;-63
2022/01/12 07:56:54;;;;;;;;;;;;;;;;;;5039661;28;19925;-63
2022/01/12 07:59:21;;;;;;;;;;;;;;;;;;5038905;28;19932;-63
2022/01/12 08:01:48;;;;;;;;;;;;;;;;;;5046443;28;19936;-64
2022/01/12 08:04:14;;;;;;;;;;;;;;;;;;5045494;28;20412;-63
2022/01/12 08:06:42;;;;;;;;;;;;;;;;;;5037247;28;19928;-63
2022/01/12 08:09:09;;;;;;;;;;;;;;;;;;5033608;28;19991;-63
2022/01/12 08:11:36;;;;;;;;;;;;;;;;;;5044556;28;19936;-63
2022/01/12 08:14:03;;;;;;;;;;;;;;;;;;5035523;28;19925;-63
2022/01/12 08:16:30;;;;;;;;;;;;;;;;;;5045036;28;19932;-63
2022/01/12 08:18:57;;;;;;;;;;;;;;;;;;5040329;28;19925;-63
2022/01/12 08:21:27;;;;;;;;;;;;;;;;;;5041762;28;19976;-62
2022/01/12 08:23:54;;;;;;;;;;;;;;;;;;5047265;28;20386;-63
2022/01/12 08:26:21;;;;;;;;;;;;;;;;;;5042224;28;20305;-63
2022/01/12 08:28:48;;;;;;;;;;;;;;;;;;5048709;28;20012;-63
2022/01/12 08:31:15;;;;;;;;;;;;;;;;;;5048567;28;19925;-63
2022/01/12 08:33:42;;;;;;;;;;;;;;;;;;5043316;28;19925;-63
2022/01/12 08:36:08;;;;;;;;;;;;;;;;;;5046423;28;19933;-63
2022/01/12 08:38:35;;;;;;;;;;;;;;;;;;5047215;28;19936;-64
2022/01/12 08:41:02;;;;;;;;;;;;;;;;;;5046581;28;19931;-63
2022/01/12 08:43:29;;;;;;;;;;;;;;;;;;5046690;28;20389;-63
2022/01/12 08:45:56;;;;;;;;;;;;;;;;;;5046791;28;21089;-62
2022/01/12 08:48:23;;;;;;;;;;;;;;;;;;5047878;28;19925;-63
2022/01/12 08:50:50;;;;;;;;;;;;;;;;;;5044099;28;19932;-63
2022/01/12 08:53:17;;;;;;;;;;;;;;;;;;5047409;28;19929;-63
2022/01/12 08:55:44;;;;;;;;;;;;;;;;;;5050279;28;19931;-65
2022/01/12 08:58:11;;;;;;;;;;;;;;;;;;5044339;28;19925;-63
2022/01/12 09:00:38;;;;;;;;;;;;;;;;;;5046155;28;19925;-63
2022/01/12 09:03:05;;;;;;;;;;;;;;;;;;5050500;28;19932;-63
2022/01/12 09:05:32;;;;;;;;;;;;;;;;;;5050294;28;20333;-64
2022/01/12 09:07:59;;;;;;;;;;;;;;;;;;5049103;28;19929;-64
2022/01/12 09:10:26;;;;;;;;;;;;;;;;;;5047186;28;19932;-63
2022/01/12 09:12:53;;;;;;;;;;;;;;;;;;5048212;28;19925;-63
2022/01/12 09:15:25;;;;;;;;;;;;;;;;;;5047407;28;19985;-63
2022/01/12 09:17:51;;;;;;;;;;;;;;;;;;5050047;28;19974;-64
2022/01/12 09:20:18;;;;;;;;;;;;;;;;;;5041400;28;19944;-64
2022/01/12 09:22:45;;;;;;;;;;;;;;;;;;5046022;28;19944;-63
2022/01/12 09:25:12;;;;;;;;;;;;;;;;;;5049825;28;19925;-63
2022/01/12 09:27:39;;;;;;;;;;;;;;;;;;5050088;28;19978;-63
2022/01/12 09:30:06;;;;;;;;;;;;;;;;;;5045737;28;19947;-64
2022/01/12 09:32:33;;;;;;;;;;;;;;;;;;5046288;28;19956;-63
2022/01/12 09:35:00;;;;;;;;;;;;;;;;;;5049287;28;19947;-64
2022/01/12 09:37:27;;;;;;;;;;;;;;;;;;5040361;28;19931;-64
2022/01/12 09:39:54;;;;;;;;;;;;;;;;;;5046168;28;19925;-64
2022/01/12 09:42:21;;;;;;;;;;;;;;;;;;5049670;28;19933;-63
2022/01/12 09:44:48;;;;;;;;;;;;;;;;;;5044280;28;20232;-63
2022/01/12 09:47:15;;;;;;;;;;;;;;;;;;5043030;28;19925;-63
2022/01/12 09:49:42;;;;;;;;;;;;;;;;;;5044214;28;20386;-63
2022/01/12 09:52:09;;;;;;;;;;;;;;;;;;5048464;28;20243;-63
2022/01/12 09:54:36;;;;;;;;;;;;;;;;;;5046846;28;19929;-63
2022/01/12 09:57:03;;;;;;;;;;;;;;;;;;5050916;28;19929;-63
2022/01/12 09:59:30;;;;;;;;;;;;;;;;;;5048006;28;19928;-63
2022/01/12 10:01:57;;;;;;;;;;;;;;;;;;5047974;28;19964;-64
2022/01/12 10:04:24;;;;;;;;;;;;;;;;;;5047393;28;19925;-63
2022/01/12 10:06:53;;;;;;;;;;;;;;;;;;5045080;28;19932;-64
2022/01/12 10:09:20;;;;;;;;;;;;;;;;;;5046706;28;19936;-64
2022/01/12 10:11:47;;;;;;;;;;;;;;;;;;5046561;28;19980;-64
2022/01/12 10:14:14;;;;;;;;;;;;;;;;;;5048059;28;19983;-64
2022/01/12 10:16:43;;;;;;;;;;;;;;;;;;5048753;28;19925;-64
2022/01/12 10:19:10;;;;;;;;;;;;;;;;;;5040741;28;20301;-64
2022/01/12 10:21:40;;;;;;;;;;;;;;;;;;5043987;28;19931;-64
2022/01/12 10:24:07;;;;;;;;;;;;;;;;;;5046372;28;20022;-64
2022/01/12 10:26:34;;;;;;;;;;;;;;;;;;5048300;28;19929;-64
2022/01/12 10:29:01;;;;;;;;;;;;;;;;;;5042538;28;19928;-64
2022/01/12 10:31:28;;;;;;;;;;;;;;;;;;5047188;28;20101;-64
2022/01/12 10:33:56;;;;;;;;;;;;;;;;;;5042383;28;19932;-64
2022/01/12 10:36:23;;;;;;;;;;;;;;;;;;5043555;28;19925;-64
2022/01/12 10:38:50;;;;;;;;;;;;;;;;;;5044865;28;19933;-64
2022/01/12 10:41:17;;;;;;;;;;;;;;;;;;5044992;28;19979;-64
2022/01/12 10:43:44;;;;;;;;;;;;;;;;;;5043337;28;19924;-64
2022/01/12 10:46:11;;;;;;;;;;;;;;;;;;5046386;28;20007;-64
2022/01/12 10:48:38;;;;;;;;;;;;;;;;;;5044466;28;19972;-64
2022/01/12 10:51:06;;;;;;;;;;;;;;;;;;5045386;28;20196;-64
2022/01/12 10:53:33;;;;;;;;;;;;;;;;;;5044920;28;19947;-65
2022/01/12 10:56:00;;;;;;;;;;;;;;;;;;5042863;28;20028;-64
2022/01/12 10:58:27;;;;;;;;;;;;;;;;;;5046796;28;19925;-64
2022/01/12 11:00:54;;;;;;;;;;;;;;;;;;5041590;28;19933;-64
2022/01/12 11:03:21;;;;;;;;;;;;;;;;;;5044934;28;19924;-64
2022/01/12 11:05:49;;;;;;;;;;;;;;;;;;5047288;28;20041;-64
2022/01/12 11:08:15;;;;;;;;;;;;;;;;;;5042965;28;19928;-64
2022/01/12 11:10:42;;;;;;;;;;;;;;;;;;5046879;28;19925;-64
2022/01/12 11:13:10;;;;;;;;;;;;;;;;;;5041432;28;19933;-64
2022/01/12 11:15:36;;;;;;;;;;;;;;;;;;5044226;28;19976;-64
2022/01/12 11:18:03;;;;;;;;;;;;;;;;;;5043941;28;20390;-64
2022/01/12 11:20:31;;;;;;;;;;;;;;;;;;5043848;28;19931;-64
2022/01/12 11:22:57;;;;;;;;;;;;;;;;;;5043445;28;19924;-63
2022/01/12 11:25:25;;;;;;;;;;;;;;;;;;5043622;28;19925;-63
2022/01/12 11:27:52;;;;;;;;;;;;;;;;;;5047900;28;19992;-64
2022/01/12 11:30:19;;;;;;;;;;;;;;;;;;5049321;28;19929;-65
2022/01/12 11:32:47;;;;;;;;;;;;;;;;;;5045250;28;19925;-64
2022/01/12 11:35:14;;;;;;;;;;;;;;;;;;5046578;28;19970;-63
2022/01/12 11:37:41;;;;;;;;;;;;;;;;;;5042183;28;19925;-64
2022/01/12 11:40:08;;;;;;;;;;;;;;;;;;5044628;28;19931;-64
2022/01/12 11:42:35;;;;;;;;;;;;;;;;;;5041944;28;19932;-64
2022/01/12 11:45:02;;;;;;;;;;;;;;;;;;5047435;28;21341;-64
2022/01/12 11:47:32;;;;;;;;;;;;;;;;;;5043472;28;19939;-63
2022/01/12 11:49:59;;;;;;;;;;;;;;;;;;5043554;28;19979;-64
2022/01/12 11:52:26;;;;;;;;;;;;;;;;;;5041564;28;19964;-64
2022/01/12 11:54:53;;;;;;;;;;;;;;;;;;5046577;28;20398;-64
2022/01/12 11:57:20;;;;;;;;;;;;;;;;;;5046631;28;19925;-64
2022/01/12 11:59:47;;;;;;;;;;;;;;;;;;5048767;28;19932;-64
2022/01/12 12:02:14;;;;;;;;;;;;;;;;;;5041598;28;19925;-63
2022/01/12 12:04:41;;;;;;;;;;;;;;;;;;5047703;28;19925;-64
2022/01/12 12:07:08;;;;;;;;;;;;;;;;;;5048610;28;20230;-64
2022/01/12 12:09:35;;;;;;;;;;;;;;;;;;5041765;28;19932;-65
2022/01/12 12:12:02;;;;;;;;;;;;;;;;;;5045958;28;19940;-65
2022/01/12 12:14:29;;;;;;;;;;;;;;;;;;5044808;28;19935;-64
2022/01/12 12:16:56;;;;;;;;;;;;;;;;;;5042169;28;19924;-64
2022/01/12 12:19:23;;;;;;;;;;;;;;;;;;5044448;28;20294;-65
2022/01/12 12:21:50;;;;;;;;;;;;;;;;;;5045762;28;19936;-64
2022/01/12 12:24:17;;;;;;;;;;;;;;;;;;5037261;28;20528;-65
2022/01/12 12:26:44;;;;;;;;;;;;;;;;;;5046175;28;20418;-65
2022/01/12 12:29:11;;;;;;;;;;;;;;;;;;5042799;28;20413;-64
2022/01/12 12:31:38;;;;;;;;;;;;;;;;;;5046888;28;19925;-64
2022/01/12 12:34:05;;;;;;;;;;;;;;;;;;5046601;28;19924;-65
2022/01/12 12:36:32;;;;;;;;;;;;;;;;;;5045764;28;19931;-64
2022/01/12 12:38:59;;;;;;;;;;;;;;;;;;5041408;28;19925;-64
2022/01/12 12:41:25;;;;;;;;;;;;;;;;;;5044181;28;19947;-64
2022/01/12 12:43:52;;;;;;;;;;;;;;;;;;5043020;28;19925;-64
2022/01/12 12:46:19;;;;;;;;;;;;;;;;;;5044077;28;19931;-64
2022/01/12 12:48:46;;;;;;;;;;;;;;;;;;5041726;28;19929;-64
2022/01/12 12:51:14;;;;;;;;;;;;;;;;;;5046359;28;19948;-64
2022/01/12 12:53:41;;;;;;;;;;;;;;;;;;5043548;28;19928;-64
2022/01/12 12:56:08;;;;;;;;;;;;;;;;;;5045104;28;19931;-64
2022/01/12 12:58:35;;;;;;;;;;;;;;;;;;5042700;28;19997;-64
2022/01/12 13:01:02;;;;;;;;;;;;;;;;;;5045275;28;19925;-64
2022/01/12 13:03:29;;;;;;;;;;;;;;;;;;5044413;28;19932;-64
2022/01/12 13:05:56;;;;;;;;;;;;;;;;;;5036363;28;20275;-62
2022/01/12 13:08:23;;;;;;;;;;;;;;;;;;5044179;28;19925;-64
2022/01/12 13:10:50;;;;;;;;;;;;;;;;;;5038974;28;20591;-64
2022/01/12 13:13:17;;;;;;;;;;;;;;;;;;5044458;28;19924;-63
2022/01/12 13:15:44;;;;;;;;;;;;;;;;;;5043237;28;19925;-64
2022/01/12 13:18:11;;;;;;;;;;;;;;;;;;5043533;28;19932;-64
2022/01/12 13:23:22;;;;;;;;;;;;;;;;;;5043031;28;20282;-63
2022/01/12 13:25:49;;;;;;;;;;;;;;;;;;5046815;28;19924;-63
2022/01/12 13:28:16;;;;;;;;;;;;;;;;;;5046992;28;19925;-64
2022/01/12 13:30:43;;;;;;;;;;;;;;;;;;5043858;28;19925;-63
2022/01/12 13:33:10;;;;;;;;;;;;;;;;;;5042053;28;19925;-64
2022/01/12 13:35:37;;;;;;;;;;;;;;;;;;5044980;28;19947;-64
2022/01/12 13:38:04;;;;;;;;;;;;;;;;;;5043083;28;20100;-64
2022/01/12 13:40:31;;;;;;;;;;;;;;;;;;5047495;28;20409;-65
2022/01/12 13:43:00;;;;;;;;;;;;;;;;;;5047054;28;19931;-65
2022/01/12 13:45:29;;;;;;;;;;;;;;;;;;5046382;28;19925;-65
2022/01/12 13:47:59;;;;;;;;;;;;;;;;;;5043700;28;19933;-65
2022/01/12 13:50:26;;;;;;;;;;;;;;;;;;5041895;28;20325;-65
2022/01/12 13:52:53;;;;;;;;;;;;;;;;;;5046142;28;20044;-65
2022/01/12 13:55:20;;;;;;;;;;;;;;;;;;5047767;28;19929;-64
2022/01/12 13:57:46;;;;;;;;;;;;;;;;;;5046584;28;20534;-64
2022/01/12 14:00:13;;;;;;;;;;;;;;;;;;5047345;28;19936;-64
2022/01/12 14:02:40;;;;;;;;;;;;;;;;;;5038142;28;19948;-64
2022/01/12 14:05:09;;;;;;;;;;;;;;;;;;5042605;28;19935;-64
2022/01/12 14:07:39;;;;;;;;;;;;;;;;;;5045304;28;19970;-64
2022/01/12 14:10:06;;;;;;;;;;;;;;;;;;5044775;28;20344;-64
2022/01/12 14:12:33;;;;;;;;;;;;;;;;;;5040380;28;19925;-64
2022/01/12 14:15:00;;;;;;;;;;;;;;;;;;5043353;28;20279;-63
2022/01/12 14:17:27;;;;;;;;;;;;;;;;;;5047793;28;19928;-64
2022/01/12 14:19:54;;;;;;;;;;;;;;;;;;5043987;28;20405;-65
2022/01/12 14:22:21;;;;;;;;;;;;;;;;;;5047070;28;19931;-65
2022/01/12 14:24:48;;;;;;;;;;;;;;;;;;5042603;28;19932;-64
2022/01/12 14:27:15;;;;;;;;;;;;;;;;;;5044558;28;20849;-66
2022/01/12 14:29:42;;;;;;;;;;;;;;;;;;5047024;28;19936;-64
2022/01/12 14:32:08;;;;;;;;;;;;;;;;;;5045661;28;19936;-64
2022/01/12 14:34:35;;;;;;;;;;;;;;;;;;5045374;28;20287;-64
2022/01/12 14:37:02;;;;;;;;;;;;;;;;;;5045214;28;19928;-64
2022/01/12 14:39:29;;;;;;;;;;;;;;;;;;5047912;28;19924;-65
2022/01/12 14:41:57;;;;;;;;;;;;;;;;;;5038081;28;20314;-64
2022/01/12 14:44:28;;;;;;;;;;;;;;;;;;5047964;28;20301;-64
2022/01/12 14:46:55;;;;;;;;;;;;;;;;;;5043730;28;20319;-63
2022/01/12 14:49:22;;;;;;;;;;;;;;;;;;5037106;28;19928;-64
2022/01/12 14:51:49;;;;;;;;;;;;;;;;;;5038741;28;19929;-64
2022/01/12 14:54:16;;;;;;;;;;;;;;;;;;5039777;28;19924;-64
2022/01/12 14:56:43;;;;;;;;;;;;;;;;;;5042620;28;20294;-64
2022/01/12 14:59:10;;;;;;;;;;;;;;;;;;5037983;28;19925;-64
2022/01/12 15:01:37;;;;;;;;;;;;;;;;;;5046368;28;19932;-65
2022/01/12 15:04:04;;;;;;;;;;;;;;;;;;5044485;28;20189;-65
2022/01/12 15:06:30;;;;;;;;;;;;;;;;;;5046758;28;19925;-64
2022/01/12 15:08:57;;;;;;;;;;;;;;;;;;5045191;28;19933;-64
2022/01/12 15:11:24;;;;;;;;;;;;;;;;;;5042642;28;19925;-65
2022/01/12 15:13:57;;;;;;;;;;;;;;;;;;5042009;28;20326;-65
2022/01/12 15:16:24;;;;;;;;;;;;;;;;;;5035837;28;19925;-64
2022/01/12 15:18:51;;;;;;;;;;;;;;;;;;5040476;28;20008;-64
2022/01/12 15:21:19;;;;;;;;;;;;;;;;;;5035265;28;20068;-64
2022/01/12 15:23:46;;;;;;;;;;;;;;;;;;5038467;28;20535;-64
2022/01/12 15:26:14;;;;;;;;;;;;;;;;;;5042869;28;19929;-64
2022/01/12 15:28:41;;;;;;;;;;;;;;;;;;5041420;28;19991;-64
2022/01/12 15:31:08;;;;;;;;;;;;;;;;;;5043609;28;19940;-64
2022/01/12 15:33:35;;;;;;;;;;;;;;;;;;5047573;28;20395;-64
2022/01/12 15:36:03;;;;;;;;;;;;;;;;;;5040783;28;20394;-63
2022/01/12 15:38:30;;;;;;;;;;;;;;;;;;5045756;28;19928;-63
2022/01/12 15:40:57;;;;;;;;;;;;;;;;;;5041461;28;20299;-64
2022/01/12 15:43:24;;;;;;;;;;;;;;;;;;5046219;28;20394;-64
2022/01/12 15:45:51;;;;;;;;;;;;;;;;;;5046984;28;19931;-63
2022/01/12 15:48:18;;;;;;;;;;;;;;;;;;5043376;28;19932;-65
2022/01/12 15:50:45;;;;;;;;;;;;;;;;;;5038731;28;19929;-63
2022/01/12 15:53:12;;;;;;;;;;;;;;;;;;5042188;28;19990;-63
2022/01/12 15:55:39;;;;;;;;;;;;;;;;;;5044651;28;20030;-63
2022/01/12 15:58:06;;;;;;;;;;;;;;;;;;5043365;28;19939;-63
2022/01/12 16:00:35;;;;;;;;;;;;;;;;;;5043986;28;20010;-64
2022/01/12 16:03:03;;;;;;;;;;;;;;;;;;5038500;28;19933;-64
2022/01/12 16:05:30;;;;;;;;;;;;;;;;;;5042896;28;20260;-64
2022/01/12 16:08:01;;;;;;;;;;;;;;;;;;5041826;28;20026;-64
2022/01/12 16:10:30;;;;;;;;;;;;;;;;;;5048185;28;20270;-64
2022/01/12 16:12:57;;;;;;;;;;;;;;;;;;5048463;28;19975;-64
2022/01/12 16:15:23;;;;;;;;;;;;;;;;;;5046246;28;20305;-64
2022/01/12 16:17:50;;;;;;;;;;;;;;;;;;5045601;28;19932;-63
2022/01/12 16:20:18;;;;;;;;;;;;;;;;;;5044019;28;19929;-63
2022/01/12 16:22:44;;;;;;;;;;;;;;;;;;5045669;28;20412;-63
2022/01/12 16:25:11;;;;;;;;;;;;;;;;;;5045984;28;19924;-63
2022/01/12 16:27:39;;;;;;;;;;;;;;;;;;5042432;28;20401;-64
2022/01/12 16:30:06;;;;;;;;;;;;;;;;;;5040861;28;19933;-65
2022/01/12 16:32:33;;;;;;;;;;;;;;;;;;5042872;28;20374;-63
2022/01/12 16:35:00;;;;;;;;;;;;;;;;;;5041773;28;21198;-62
2022/01/12 16:37:27;;;;;;;;;;;;;;;;;;5041914;28;19925;-64
2022/01/12 16:39:54;;;;;;;;;;;;;;;;;;5039793;28;19940;-64
2022/01/12 16:42:21;;;;;;;;;;;;;;;;;;5039763;28;19925;-64
2022/01/12 16:44:48;;;;;;;;;;;;;;;;;;5046787;28;19931;-64
2022/01/12 16:47:16;;;;;;;;;;;;;;;;;;5047609;28;19924;-64
2022/01/12 16:49:46;;;;;;;;;;;;;;;;;;5047510;28;19928;-64
2022/01/12 16:52:13;;;;;;;;;;;;;;;;;;5043886;28;19929;-65
2022/01/12 16:54:40;;;;;;;;;;;;;;;;;;5052254;28;19925;-65
2022/01/12 16:57:07;;;;;;;;;;;;;;;;;;5048203;28;20379;-65
2022/01/12 16:59:34;;;;;;;;;;;;;;;;;;5047367;28;19924;-65
2022/01/12 17:02:01;;;;;;;;;;;;;;;;;;5044555;28;19928;-65
2022/01/12 17:04:28;;;;;;;;;;;;;;;;;;5048713;28;20363;-64
2022/01/12 17:06:56;;;;;;;;;;;;;;;;;;5047818;28;20208;-65
2022/01/12 17:09:23;;;;;;;;;;;;;;;;;;5044603;28;19929;-66
2022/01/12 17:11:50;;;;;;;;;;;;;;;;;;5047873;28;19925;-65
2022/01/12 17:14:16;;;;;;;;;;;;;;;;;;5045258;28;19947;-65
2022/01/12 17:16:43;;;;;;;;;;;;;;;;;;5046006;28;19928;-65
2022/01/12 17:19:12;;;;;;;;;;;;;;;;;;5044814;28;19960;-65
2022/01/12 17:21:59;;;;;;;;;;;;;;;;;;5044159;28;19933;-65
2022/01/12 17:29:58;;;;;;;;;;;;;;;;;;5046264;28;20397;-65
2022/01/12 17:32:25;;;;;;;;;;;;;;;;;;5046185;28;19925;-64
2022/01/12 17:34:52;;;;;;;;;;;;;;;;;;5047415;28;20286;-65
2022/01/12 17:37:20;;;;;;;;;;;;;;;;;;5042143;28;19935;-65
2022/01/12 17:39:47;;;;;;;;;;;;;;;;;;5044728;28;19925;-66
2022/01/12 17:42:14;;;;;;;;;;;;;;;;;;5045532;28;19925;-66
2022/01/12 17:44:42;;;;;;;;;;;;;;;;;;5044547;28;19947;-66
2022/01/12 17:47:09;;;;;;;;;;;;;;;;;;5045208;28;19928;-66
2022/01/12 17:52:21;;;;;;;;;;;;;;;;;;5049185;28;20333;-66
2022/01/12 17:54:48;;;;;;;;;;;;;;;;;;5046535;28;19932;-65
2022/01/12 17:57:15;;;;;;;;;;;;;;;;;;5044296;28;19931;-66
2022/01/12 17:59:42;;;;;;;;;;;;;;;;;;5047740;28;20505;-64
2022/01/12 18:02:09;;;;;;;;;;;;;;;;;;5043599;28;19925;-64